Time;durP1;ratioP1;P1;durP2;ratioP2;P2;SDS_P1;SDS_P2;PMS_P1;PMS_P2;Temp;Humidity;BMP_temperature;BMP_pressure;BME280_temperature;BME280_humidity;BME280_pressure;Samples;Min_cycle;Max_cycle;Signal;HPM_P1;HPM_P2
2021/12/18 00:02:09;;;;;;;5.80;2.78;;;8.00;92.00;;;;;;5043675;28;20462;-67
2021/12/18 00:04:35;;;;;;;7.13;3.58;;;8.00;91.90;;;;;;5058456;28;20119;-68
2021/12/18 00:07:01;;;;;;;6.75;2.83;;;7.90;91.90;;;;;;5054803;28;20152;-68
2021/12/18 00:09:30;;;;;;;5.55;3.17;;;8.00;92.00;;;;;;5048771;28;20632;-68
2021/12/18 00:11:56;;;;;;;3.65;2.80;;;7.90;92.00;;;;;;5049017;28;20065;-68
2021/12/18 00:14:21;;;;;;;4.88;3.08;;;7.90;92.10;;;;;;5048943;28;20902;-67
2021/12/18 00:16:47;;;;;;;5.63;3.55;;;7.90;92.10;;;;;;5047299;28;20135;-67
2021/12/18 00:19:13;;;;;;;4.78;3.60;;;7.80;92.10;;;;;;5038931;28;20041;-67
2021/12/18 00:21:40;;;;;;;4.65;3.47;;;7.90;92.10;;;;;;5048153;28;20052;-67
2021/12/18 00:24:07;;;;;;;5.82;3.78;;;7.90;92.20;;;;;;5047514;28;20454;-67
2021/12/18 00:26:33;;;;;;;5.10;3.88;;;7.90;92.20;;;;;;5049026;28;20032;-68
2021/12/18 00:29:00;;;;;;;6.00;4.30;;;7.90;92.20;;;;;;5034597;28;20045;-67
2021/12/18 00:31:25;;;;;;;6.50;3.25;;;7.90;92.20;;;;;;5029634;28;20144;-67
2021/12/18 00:33:51;;;;;;;6.53;3.55;;;7.90;92.20;;;;;;5028772;28;20124;-68
2021/12/18 00:36:17;;;;;;;5.15;3.15;;;7.90;92.30;;;;;;5028831;28;20052;-68
2021/12/18 00:38:42;;;;;;;4.85;3.42;;;7.90;92.30;;;;;;5045302;28;20037;-67
2021/12/18 00:43:41;;;;;;;7.55;2.20;;;7.90;92.20;;;;;;5046210;28;20498;-68
2021/12/18 00:46:07;;;;;;;3.92;2.30;;;7.90;92.20;;;;;;5048817;28;20098;-68
2021/12/18 00:48:33;;;;;;;2.33;1.70;;;7.90;92.10;;;;;;5048332;28;20561;-68
2021/12/18 00:50:58;;;;;;;2.95;1.73;;;7.90;92.10;;;;;;5047010;28;20418;-68
2021/12/18 00:53:24;;;;;;;2.58;1.80;;;7.90;92.00;;;;;;5047781;28;20128;-67
2021/12/18 00:55:52;;;;;;;4.28;2.17;;;7.80;92.00;;;;;;5048339;28;20052;-68
2021/12/18 00:58:18;;;;;;;2.72;2.05;;;7.70;92.00;;;;;;5030357;28;20060;-68
2021/12/18 01:00:44;;;;;;;5.35;2.15;;;7.80;92.00;;;;;;5052314;28;20513;-68
2021/12/18 01:03:19;;;;;;;4.68;2.00;;;7.80;92.00;;;;;;5033998;28;20041;-68
2021/12/18 01:05:46;;;;;;;2.33;1.95;;;7.80;92.00;;;;;;5052072;28;20072;-68
2021/12/18 01:08:11;;;;;;;7.05;1.85;;;7.80;92.00;;;;;;5033662;28;20088;-68
2021/12/18 01:13:13;;;;;;;7.57;2.15;;;7.70;92.00;;;;;;5036965;28;20049;-67
2021/12/18 01:15:46;;;;;;;5.07;2.08;;;7.80;92.00;;;;;;5033935;28;20049;-67
2021/12/18 01:23:40;;;;;;;1.92;1.40;;;7.70;91.90;;;;;;5051093;28;20044;-67
2021/12/18 01:26:06;;;;;;;2.35;1.40;;;7.70;91.90;;;;;;5051471;28;20183;-68
2021/12/18 01:28:32;;;;;;;6.78;1.35;;;7.60;91.90;;;;;;5049354;28;20044;-68
2021/12/18 01:30:59;;;;;;;3.85;1.35;;;7.60;91.90;;;;;;5051018;28;20502;-67
2021/12/18 01:33:24;;;;;;;9.98;1.20;;;7.50;91.70;;;;;;5051077;28;20062;-68
2021/12/18 01:35:52;;;;;;;5.18;1.48;;;7.50;91.90;;;;;;5050993;28;20049;-68
2021/12/18 01:38:18;;;;;;;1.30;1.10;;;7.50;91.90;;;;;;5050969;28;20051;-68
2021/12/18 01:40:44;;;;;;;5.38;1.00;;;7.50;92.00;;;;;;5049503;28;20045;-67
2021/12/18 01:51:45;;;;;;;1.38;1.27;;;7.60;91.90;;;;;;5049986;28;20091;-68
2021/12/18 01:54:12;;;;;;;3.47;1.13;;;7.60;91.90;;;;;;5049246;28;20095;-68
2021/12/18 01:56:37;;;;;;;2.63;1.67;;;7.60;91.90;;;;;;5048928;28;20440;-68
2021/12/18 01:59:03;;;;;;;3.65;1.40;;;7.50;91.80;;;;;;5048442;28;20052;-68
2021/12/18 02:01:29;;;;;;;7.35;1.40;;;7.50;91.70;;;;;;5048770;28;20037;-68
2021/12/18 02:03:54;;;;;;;1.85;1.45;;;7.50;91.70;;;;;;5049335;28;20037;-68
2021/12/18 02:06:20;;;;;;;2.15;1.40;;;7.40;91.70;;;;;;5050053;28;20079;-68
2021/12/18 02:08:46;;;;;;;7.00;1.50;;;7.50;91.70;;;;;;5048934;28;20390;-68
2021/12/18 02:11:28;;;;;;;2.85;2.08;;;7.40;91.70;;;;;;5048723;28;20504;-68
2021/12/18 02:22:03;;;;;;;6.18;1.98;;;7.30;91.60;;;;;;5049623;28;20049;-68
2021/12/18 02:24:30;;;;;;;2.38;1.50;;;7.30;91.80;;;;;;5049179;28;20037;-68
2021/12/18 02:26:58;;;;;;;8.73;2.20;;;7.30;91.70;;;;;;5048684;28;20052;-67
2021/12/18 02:29:25;;;;;;;4.70;2.63;;;7.30;91.70;;;;;;5048794;28;20037;-68
2021/12/18 02:31:51;;;;;;;5.00;2.55;;;7.30;91.70;;;;;;5030322;28;20049;-68
2021/12/18 02:34:23;;;;;;;4.63;3.03;;;7.30;91.80;;;;;;5048695;28;20063;-68
2021/12/18 02:36:49;;;;;;;4.40;2.50;;;7.30;91.80;;;;;;5012722;28;20050;-68
2021/12/18 02:42:17;;;;;;;6.95;3.00;;;7.20;91.90;;;;;;5049827;28;20056;-68
2021/12/18 02:44:43;;;;;;;6.22;3.35;;;7.20;91.90;;;;;;5049373;28;20041;-68
2021/12/18 02:47:10;;;;;;;5.07;2.75;;;7.20;91.80;;;;;;5048902;28;20076;-68
2021/12/18 02:49:35;;;;;;;5.00;3.13;;;7.20;91.80;;;;;;5049493;28;20812;-68
2021/12/18 02:52:02;;;;;;;7.10;2.90;;;7.20;91.90;;;;;;5048930;28;20069;-68
2021/12/18 02:54:27;;;;;;;7.05;3.42;;;7.20;91.90;;;;;;5048836;28;20412;-68
2021/12/18 02:56:53;;;;;;;5.75;2.95;;;7.20;91.90;;;;;;5048881;28;20041;-67
2021/12/18 02:59:20;;;;;;;8.07;3.15;;;7.20;91.90;;;;;;5029176;28;20049;-68
2021/12/18 03:01:46;;;;;;;9.85;3.65;;;7.20;91.90;;;;;;5049312;28;20041;-68
2021/12/18 03:04:29;;;;;;;7.07;3.30;;;7.20;91.80;;;;;;5048004;28;20037;-67
2021/12/18 03:06:59;;;;;;;7.80;3.92;;;7.20;91.90;;;;;;5049393;28;20080;-67
2021/12/18 03:20:53;;;;;;;11.20;4.68;;;7.20;92.00;;;;;;5029736;28;20144;-67
2021/12/18 03:25:25;;;;;;;9.38;4.82;;;7.30;92.20;;;;;;5049140;28;20049;-67
2021/12/18 03:27:52;;;;;;;8.52;3.65;;;7.30;92.10;;;;;;5046347;28;20507;-68
2021/12/18 03:30:18;;;;;;;7.18;3.78;;;7.30;92.20;;;;;;5049160;28;20132;-68
2021/12/18 03:32:44;;;;;;;7.53;4.10;;;7.40;92.20;;;;;;5048736;28;20120;-68
2021/12/18 03:35:10;;;;;;;8.48;4.53;;;7.40;92.20;;;;;;5049226;28;20063;-68
2021/12/18 03:37:37;;;;;;;9.05;4.53;;;7.50;92.30;;;;;;5048796;28;20045;-68
2021/12/18 03:40:10;;;;;;;8.70;4.43;;;7.50;92.30;;;;;;5047975;28;20497;-68
2021/12/18 03:42:35;;;;;;;10.38;5.18;;;7.50;92.30;;;;;;5048401;28;20779;-68
2021/12/18 03:45:03;;;;;;;8.30;4.20;;;7.50;92.20;;;;;;5047440;28;20052;-68
2021/12/18 03:47:28;;;;;;;7.63;3.65;;;7.50;92.20;;;;;;5049097;28;20037;-68
2021/12/18 03:49:54;;;;;;;6.82;3.50;;;7.50;92.20;;;;;;5048618;28;20095;-68
2021/12/18 03:52:19;;;;;;;7.85;3.50;;;7.50;92.20;;;;;;5048340;28;20041;-68
2021/12/18 03:54:45;;;;;;;8.38;3.35;;;7.50;92.10;;;;;;5048234;28;20045;-68
2021/12/18 03:57:11;;;;;;;8.60;3.78;;;7.50;92.10;;;;;;5049053;28;20041;-68
2021/12/18 03:59:36;;;;;;;5.60;3.17;;;7.50;92.10;;;;;;5048915;28;20056;-68
2021/12/18 04:02:02;;;;;;;8.38;3.95;;;7.60;92.10;;;;;;5048394;28;20045;-68
2021/12/18 04:04:28;;;;;;;8.07;4.68;;;7.60;92.10;;;;;;5046544;28;20120;-67
2021/12/18 04:06:54;;;;;;;11.52;4.35;;;7.60;92.10;;;;;;5048929;28;20048;-68
2021/12/18 04:09:20;;;;;;;9.13;4.70;;;7.70;92.10;;;;;;5048503;28;20549;-68
2021/12/18 04:11:46;;;;;;;10.43;5.22;;;7.70;92.10;;;;;;5049131;28;20045;-68
2021/12/18 04:14:13;;;;;;;10.85;4.93;;;7.70;92.10;;;;;;5048383;28;20135;-68
2021/12/18 04:16:39;;;;;;;9.68;5.10;;;7.70;92.10;;;;;;5049155;28;20041;-68
2021/12/18 04:19:05;;;;;;;9.70;4.45;;;7.70;92.10;;;;;;5046410;28;20053;-68
2021/12/18 04:21:32;;;;;;;9.00;4.53;;;7.70;92.10;;;;;;5048981;28;20041;-68
2021/12/18 04:23:59;;;;;;;8.75;3.78;;;7.80;92.10;;;;;;5046536;28;20049;-68
2021/12/18 04:26:24;;;;;;;8.35;4.80;;;7.80;92.10;;;;;;5028666;28;20053;-68
2021/12/18 04:28:50;;;;;;;6.15;3.40;;;7.80;92.00;;;;;;5035165;28;20442;-67
2021/12/18 04:31:16;;;;;;;6.10;3.60;;;7.80;92.00;;;;;;5048672;28;20048;-68
2021/12/18 04:33:42;;;;;;;5.90;3.20;;;7.70;92.00;;;;;;5049848;28;20041;-67
2021/12/18 04:36:08;;;;;;;6.10;2.88;;;7.70;92.00;;;;;;5051506;28;20488;-68
2021/12/18 04:38:34;;;;;;;5.25;2.65;;;7.70;92.00;;;;;;5050987;28;20045;-68
2021/12/18 04:41:00;;;;;;;5.45;3.20;;;7.70;92.10;;;;;;5051842;28;20049;-68
2021/12/18 04:43:26;;;;;;;3.55;2.88;;;7.70;92.10;;;;;;5052585;28;20036;-68
2021/12/18 04:45:52;;;;;;;6.43;3.20;;;7.70;92.10;;;;;;5034081;28;20486;-68
2021/12/18 04:48:17;;;;;;;4.05;2.53;;;7.70;92.10;;;;;;5032425;28;20487;-68
2021/12/18 04:50:43;;;;;;;4.45;2.92;;;7.60;92.10;;;;;;5047195;28;20087;-68
2021/12/18 04:53:10;;;;;;;5.43;2.83;;;7.60;92.20;;;;;;5052185;28;20056;-68
2021/12/18 04:55:35;;;;;;;5.38;3.22;;;7.70;92.10;;;;;;5051761;28;20121;-68
2021/12/18 04:58:01;;;;;;;3.03;2.40;;;7.60;92.20;;;;;;5051769;28;20077;-68
2021/12/18 05:00:36;;;;;;;4.72;2.58;;;7.70;92.20;;;;;;5050676;28;20132;-68
2021/12/18 05:03:05;;;;;;;3.88;2.42;;;7.60;92.20;;;;;;5050886;28;20041;-68
2021/12/18 05:05:31;;;;;;;4.28;2.70;;;7.70;92.30;;;;;;5051126;28;20040;-68
2021/12/18 05:07:57;;;;;;;4.65;3.15;;;7.70;92.30;;;;;;5050579;28;20041;-68
2021/12/18 05:10:23;;;;;;;3.75;2.55;;;7.70;92.30;;;;;;5051781;28;20417;-67
2021/12/18 05:12:48;;;;;;;5.65;2.55;;;7.70;92.30;;;;;;5051822;28;20422;-68
2021/12/18 05:15:14;;;;;;;3.95;2.70;;;7.80;92.30;;;;;;5047542;28;20460;-68
2021/12/18 05:17:39;;;;;;;4.78;2.58;;;7.80;92.40;;;;;;5051401;28;20049;-68
2021/12/18 05:20:06;;;;;;;7.90;3.17;;;7.80;92.40;;;;;;5051588;28;20465;-68
2021/12/18 05:22:31;;;;;;;4.15;2.78;;;7.80;92.30;;;;;;5052044;28;20393;-67
2021/12/18 05:24:57;;;;;;;7.55;3.72;;;7.80;92.40;;;;;;5045889;28;20055;-68
2021/12/18 05:27:23;;;;;;;5.15;3.72;;;7.80;92.40;;;;;;5031430;28;20477;-67
2021/12/18 05:29:48;;;;;;;3.97;3.05;;;7.80;92.40;;;;;;5034307;28;20034;-68
2021/12/18 05:32:26;;;;;;;5.45;3.50;;;7.90;92.40;;;;;;5051262;28;20037;-67
2021/12/18 05:34:52;;;;;;;4.63;3.22;;;7.80;92.40;;;;;;5032708;28;20464;-67
2021/12/18 05:37:32;;;;;;;3.92;3.30;;;7.80;92.40;;;;;;5049885;28;20051;-67
2021/12/18 05:39:58;;;;;;;4.05;2.72;;;7.80;92.40;;;;;;5050843;28;20056;-67
2021/12/18 05:42:25;;;;;;;5.13;3.20;;;7.80;92.50;;;;;;5035202;28;20064;-67
2021/12/18 05:44:50;;;;;;;5.65;3.10;;;7.80;92.40;;;;;;5041415;28;20041;-67
2021/12/18 05:47:16;;;;;;;4.45;3.30;;;7.80;92.50;;;;;;5051106;28;20095;-67
2021/12/18 05:49:42;;;;;;;5.55;3.05;;;7.90;92.50;;;;;;5051631;28;20045;-67
2021/12/18 05:52:08;;;;;;;5.90;3.33;;;7.90;92.50;;;;;;5049302;28;20131;-68
2021/12/18 05:54:36;;;;;;;4.68;3.08;;;7.90;92.40;;;;;;5049656;28;20389;-68
2021/12/18 05:57:04;;;;;;;4.25;2.90;;;8.00;92.50;;;;;;5050576;28;20061;-68
2021/12/18 05:59:30;;;;;;;4.20;3.28;;;7.90;92.40;;;;;;5031237;28;20045;-68
2021/12/18 06:01:55;;;;;;;5.95;3.63;;;8.00;92.50;;;;;;5045970;28;20090;-68
2021/12/18 06:04:21;;;;;;;5.15;3.30;;;8.00;92.50;;;;;;5050481;28;20600;-68
2021/12/18 06:06:46;;;;;;;4.88;3.45;;;8.00;92.50;;;;;;5050640;28;20041;-68
2021/12/18 06:09:12;;;;;;;7.03;3.88;;;8.00;92.40;;;;;;5050566;28;20048;-68
2021/12/18 06:11:40;;;;;;;5.35;3.90;;;8.00;92.50;;;;;;5050740;28;20394;-68
2021/12/18 06:14:06;;;;;;;5.22;3.63;;;8.10;92.50;;;;;;5049657;28;20045;-68
2021/12/18 06:16:32;;;;;;;6.43;3.60;;;8.10;92.40;;;;;;5050209;28;20063;-68
2021/12/18 06:18:57;;;;;;;4.82;3.30;;;8.10;92.40;;;;;;5050643;28;20075;-68
2021/12/18 06:21:23;;;;;;;7.22;3.72;;;8.10;92.40;;;;;;5050151;28;20041;-68
2021/12/18 06:23:52;;;;;;;6.18;3.78;;;8.10;92.30;;;;;;5050492;28;20129;-68
2021/12/18 06:26:18;;;;;;;6.50;4.10;;;8.20;92.40;;;;;;5048619;28;20033;-68
2021/12/18 06:28:45;;;;;;;7.30;4.07;;;8.20;92.30;;;;;;5049748;28;20040;-68
2021/12/18 06:31:10;;;;;;;8.77;4.68;;;8.10;92.10;;;;;;5049922;28;20107;-68
2021/12/18 06:33:36;;;;;;;7.05;4.55;;;8.10;92.30;;;;;;5050029;28;20166;-68
2021/12/18 06:36:04;;;;;;;9.60;6.30;;;8.10;92.30;;;;;;5049404;28;20421;-68
2021/12/18 06:38:29;;;;;;;8.85;4.60;;;8.10;92.40;;;;;;5049092;28;20072;-68
2021/12/18 06:40:55;;;;;;;7.25;3.88;;;8.00;92.30;;;;;;5049405;28;20421;-67
2021/12/18 06:43:21;;;;;;;14.20;5.18;;;8.00;92.40;;;;;;5049949;28;20473;-68
2021/12/18 06:45:47;;;;;;;7.75;4.38;;;8.00;92.40;;;;;;5048812;28;20049;-68
2021/12/18 06:48:12;;;;;;;11.20;5.53;;;8.00;92.50;;;;;;5048921;28;20048;-68
2021/12/18 06:50:38;;;;;;;15.00;5.72;;;7.90;92.40;;;;;;5049825;28;20148;-68
2021/12/18 06:53:05;;;;;;;11.38;6.97;;;7.90;92.60;;;;;;5048127;28;20124;-68
2021/12/18 06:55:32;;;;;;;13.35;6.55;;;8.00;92.60;;;;;;5049213;28;20056;-68
2021/12/18 06:57:58;;;;;;;9.85;5.43;;;7.90;92.50;;;;;;5048988;28;20498;-67
2021/12/18 07:00:25;;;;;;;10.05;5.15;;;8.00;92.60;;;;;;5049521;28;20040;-68
2021/12/18 07:02:51;;;;;;;7.35;4.15;;;8.00;92.60;;;;;;5048374;28;20593;-68
2021/12/18 07:05:17;;;;;;;7.13;4.65;;;8.00;92.60;;;;;;5049164;28;20037;-67
2021/12/18 07:07:42;;;;;;;11.23;5.97;;;8.00;92.60;;;;;;5047497;28;20045;-67
2021/12/18 07:10:11;;;;;;;7.30;4.75;;;8.00;92.60;;;;;;5049572;28;20043;-67
2021/12/18 07:12:37;;;;;;;9.05;5.15;;;8.00;92.60;;;;;;5049304;28;20041;-67
2021/12/18 07:15:04;;;;;;;7.55;5.10;;;8.00;92.60;;;;;;5049136;28;20136;-67
2021/12/18 07:17:30;;;;;;;8.60;5.28;;;8.00;92.70;;;;;;5049216;28;20124;-68
2021/12/18 07:19:56;;;;;;;10.18;5.53;;;8.00;92.70;;;;;;5048698;28;20565;-67
2021/12/18 07:22:21;;;;;;;9.32;4.68;;;8.00;92.70;;;;;;5049337;28;20035;-67
2021/12/18 07:24:47;;;;;;;8.63;4.70;;;8.00;92.70;;;;;;5048222;28;20066;-68
2021/12/18 07:27:13;;;;;;;9.27;5.40;;;8.00;92.80;;;;;;5048851;28;20041;-68
2021/12/18 07:29:38;;;;;;;11.32;4.63;;;8.00;92.80;;;;;;5049080;28;20409;-67
2021/12/18 07:32:04;;;;;;;7.90;4.20;;;8.10;92.80;;;;;;5046273;28;20053;-66
2021/12/18 07:34:30;;;;;;;8.30;4.45;;;8.10;92.80;;;;;;5047403;28;20124;-68
2021/12/18 07:36:55;;;;;;;10.07;4.57;;;8.10;92.80;;;;;;5049192;28;20033;-67
2021/12/18 07:39:21;;;;;;;9.80;5.10;;;8.00;92.80;;;;;;5048837;28;20044;-67
2021/12/18 07:41:47;;;;;;;8.48;4.40;;;8.10;92.90;;;;;;5048919;28;20045;-68
2021/12/18 07:44:12;;;;;;;10.00;4.45;;;8.10;92.90;;;;;;5048013;28;20041;-68
2021/12/18 07:46:38;;;;;;;7.93;4.20;;;8.10;92.90;;;;;;5047328;28;20068;-67
2021/12/18 07:49:05;;;;;;;8.25;4.25;;;8.10;92.90;;;;;;5050516;28;20072;-68
2021/12/18 07:51:31;;;;;;;8.80;4.63;;;8.10;92.90;;;;;;5055518;28;20044;-67
2021/12/18 07:53:57;;;;;;;9.15;5.32;;;8.10;92.90;;;;;;5030756;28;20048;-68
2021/12/18 07:56:23;;;;;;;10.27;5.40;;;8.20;93.00;;;;;;5048635;28;20037;-68
2021/12/18 07:58:48;;;;;;;7.78;4.40;;;8.20;92.90;;;;;;5049272;28;20128;-69
2021/12/18 08:01:14;;;;;;;9.25;4.55;;;8.20;92.90;;;;;;5048267;28;20033;-69
2021/12/18 08:03:40;;;;;;;8.65;4.50;;;8.30;92.90;;;;;;5042186;28;20721;-68
2021/12/18 08:06:06;;;;;;;7.57;3.60;;;8.30;92.90;;;;;;5047470;28;20520;-68
2021/12/18 08:08:32;;;;;;;10.45;5.50;;;8.30;92.90;;;;;;5048613;28;20094;-68
2021/12/18 08:10:58;;;;;;;8.13;4.30;;;8.30;92.90;;;;;;5052648;28;20041;-68
2021/12/18 08:13:24;;;;;;;8.27;4.25;;;8.30;92.90;;;;;;5047283;28;20037;-68
2021/12/18 08:15:50;;;;;;;8.05;3.90;;;8.30;92.80;;;;;;5046372;28;20073;-68
2021/12/18 08:18:15;;;;;;;8.98;4.38;;;8.40;92.90;;;;;;5033012;28;20048;-68
2021/12/18 08:20:41;;;;;;;14.13;4.55;;;8.40;92.90;;;;;;5041878;28;20037;-68
2021/12/18 08:23:07;;;;;;;9.35;4.28;;;8.40;92.90;;;;;;5050746;28;20079;-67
2021/12/18 08:25:34;;;;;;;11.90;4.20;;;8.50;92.90;;;;;;5052662;28;20051;-68
2021/12/18 08:28:01;;;;;;;14.30;5.97;;;8.50;92.80;;;;;;5051881;28;20116;-67
2021/12/18 08:30:28;;;;;;;11.52;6.35;;;8.50;92.80;;;;;;5037404;28;20041;-68
2021/12/18 08:32:54;;;;;;;12.50;5.97;;;8.50;92.80;;;;;;5040657;28;20072;-68
2021/12/18 08:35:20;;;;;;;8.90;4.88;;;8.50;92.90;;;;;;5050497;28;20106;-68
2021/12/18 08:37:46;;;;;;;11.13;5.85;;;8.50;92.90;;;;;;5053478;28;20128;-68
2021/12/18 08:40:12;;;;;;;6.50;4.43;;;8.60;92.90;;;;;;5052246;28;20060;-68
2021/12/18 08:42:39;;;;;;;10.20;4.85;;;8.60;92.80;;;;;;5051999;28;20052;-68
2021/12/18 08:45:05;;;;;;;7.78;5.10;;;8.60;92.80;;;;;;5052281;28;20040;-68
2021/12/18 08:47:31;;;;;;;12.02;5.38;;;8.60;92.80;;;;;;5052144;28;20485;-67
2021/12/18 08:49:57;;;;;;;9.85;5.25;;;8.70;92.80;;;;;;5051786;28;20041;-67
2021/12/18 08:52:23;;;;;;;12.52;6.43;;;8.70;92.80;;;;;;5051997;28;20052;-68
2021/12/18 08:54:49;;;;;;;10.40;5.38;;;8.70;92.80;;;;;;5034407;28;20045;-68
2021/12/18 08:57:14;;;;;;;11.40;4.90;;;8.70;92.70;;;;;;5051043;28;20043;-69
2021/12/18 08:59:40;;;;;;;6.38;4.25;;;8.80;92.80;;;;;;5050731;28;20033;-67
2021/12/18 09:02:08;;;;;;;8.60;4.68;;;8.80;92.80;;;;;;5051416;28;20049;-68
2021/12/18 09:04:35;;;;;;;11.68;5.72;;;8.80;92.80;;;;;;5051949;28;20052;-68
2021/12/18 09:07:00;;;;;;;8.43;5.25;;;8.90;92.70;;;;;;5052088;28;20502;-68
2021/12/18 09:09:26;;;;;;;12.02;5.20;;;8.90;92.70;;;;;;5052302;28;20073;-67
2021/12/18 09:11:52;;;;;;;9.27;4.82;;;9.00;92.60;;;;;;5052217;28;20045;-67
2021/12/18 09:14:17;;;;;;;12.23;5.57;;;9.10;92.60;;;;;;5051695;28;20136;-67
2021/12/18 09:16:43;;;;;;;7.43;3.70;;;9.10;92.50;;;;;;5052091;28;20048;-67
2021/12/18 09:19:09;;;;;;;7.55;4.22;;;9.10;92.50;;;;;;5033233;28;20099;-67
2021/12/18 09:21:34;;;;;;;7.80;3.15;;;9.10;92.40;;;;;;5051776;28;20037;-67
2021/12/18 09:24:00;;;;;;;10.05;3.80;;;9.10;92.30;;;;;;5050322;28;20403;-67
2021/12/18 09:26:26;;;;;;;6.57;3.95;;;9.10;92.30;;;;;;5051776;28;20045;-65
2021/12/18 09:28:51;;;;;;;8.63;4.47;;;9.20;92.50;;;;;;5046493;28;20079;-68
2021/12/18 09:31:17;;;;;;;5.93;3.83;;;9.30;92.30;;;;;;5040225;28;20461;-67
2021/12/18 09:33:43;;;;;;;7.00;4.38;;;9.30;92.00;;;;;;5051295;28;20128;-68
2021/12/18 09:36:08;;;;;;;11.35;4.82;;;9.30;91.90;;;;;;5051498;28;20033;-67
2021/12/18 09:38:34;;;;;;;10.77;4.95;;;9.30;91.90;;;;;;5050212;28;20125;-67
2021/12/18 09:41:01;;;;;;;9.82;4.80;;;9.30;91.80;;;;;;5047621;28;20498;-67
2021/12/18 09:43:28;;;;;;;16.65;5.10;;;9.20;91.70;;;;;;5049067;28;20033;-68
2021/12/18 09:45:54;;;;;;;8.68;3.15;;;9.20;91.90;;;;;;5051303;28;20048;-69
2021/12/18 09:48:20;;;;;;;13.93;5.68;;;9.50;92.40;;;;;;5050989;28;20049;-67
2021/12/18 09:50:54;;;;;;;11.18;5.50;;;9.80;92.00;;;;;;5050010;28;20044;-67
2021/12/18 09:53:20;;;;;;;11.23;4.43;;;9.80;91.60;;;;;;5050402;28;20053;-67
2021/12/18 09:55:45;;;;;;;10.32;4.82;;;9.70;91.40;;;;;;5049632;28;20379;-68
2021/12/18 09:58:11;;;;;;;8.32;5.32;;;9.70;91.20;;;;;;5051346;28;20052;-67
2021/12/18 10:00:37;;;;;;;7.65;3.88;;;9.70;91.20;;;;;;5050769;28;20041;-67
2021/12/18 10:03:03;;;;;;;6.32;3.30;;;9.60;91.20;;;;;;5050626;28;20520;-67
2021/12/18 10:05:31;;;;;;;9.65;3.22;;;9.60;91.20;;;;;;5050567;28;20409;-67
2021/12/18 10:08:18;;;;;;;6.40;3.05;;;9.50;91.20;;;;;;5045158;28;20406;-67
2021/12/18 10:11:08;;;;;;;9.55;3.20;;;9.50;91.00;;;;;;5051088;28;20489;-68
2021/12/18 10:13:50;;;;;;;9.35;3.75;;;9.40;91.20;;;;;;5042422;28;20490;-67
2021/12/18 10:16:16;;;;;;;10.57;4.00;;;9.40;91.20;;;;;;5050222;28;20513;-68
2021/12/18 10:18:42;;;;;;;10.27;4.15;;;9.30;91.40;;;;;;5049900;28;20045;-67
2021/12/18 10:21:13;;;;;;;6.07;3.58;;;9.20;91.30;;;;;;5050347;28;20123;-66
2021/12/18 10:23:41;;;;;;;5.82;3.80;;;9.20;91.50;;;;;;5031604;28;20433;-67
2021/12/18 10:26:07;;;;;;;16.38;5.10;;;9.20;91.50;;;;;;5030929;28;20085;-67
2021/12/18 10:28:45;;;;;;;6.13;4.13;;;9.20;91.60;;;;;;5032033;28;20099;-67
2021/12/18 10:31:11;;;;;;;12.80;4.57;;;9.20;91.70;;;;;;5032920;28;20112;-67
2021/12/18 10:33:37;;;;;;;10.70;4.15;;;9.20;91.70;;;;;;5041079;28;20140;-67
2021/12/18 10:36:03;;;;;;;4.95;3.08;;;9.20;91.80;;;;;;5037585;28;20480;-67
2021/12/18 10:38:49;;;;;;;11.05;3.42;;;9.20;91.80;;;;;;5038575;28;20048;-67
2021/12/18 10:41:32;;;;;;;5.55;2.67;;;9.20;91.80;;;;;;5050134;28;20056;-68
2021/12/18 10:44:09;;;;;;;7.68;2.47;;;9.20;91.80;;;;;;5038736;28;20053;-67
2021/12/18 10:46:38;;;;;;;7.10;1.90;;;9.20;91.80;;;;;;5046730;28;20037;-69
2021/12/18 10:49:13;;;;;;;5.38;2.40;;;9.20;91.70;;;;;;5048205;28;20041;-67
2021/12/18 10:51:40;;;;;;;3.42;2.17;;;9.40;91.90;;;;;;5040127;28;20033;-68
2021/12/18 10:54:09;;;;;;;6.55;2.00;;;9.40;91.70;;;;;;5048997;28;20519;-68
2021/12/18 10:56:39;;;;;;;4.13;2.40;;;9.40;91.50;;;;;;5048669;28;20045;-68
2021/12/18 10:59:19;;;;;;;4.20;2.20;;;9.40;91.40;;;;;;5048525;28;20045;-68
2021/12/18 11:01:56;;;;;;;4.95;2.42;;;9.40;91.20;;;;;;5040013;28;20508;-68
2021/12/18 11:04:27;;;;;;;4.78;2.53;;;9.40;91.30;;;;;;5042619;28;20044;-68
2021/12/18 11:06:55;;;;;;;8.18;3.58;;;9.30;91.20;;;;;;5048500;28;20094;-68
2021/12/18 11:09:34;;;;;;;6.88;3.00;;;9.30;91.20;;;;;;5047231;28;20426;-68
2021/12/18 11:14:46;;;;;;;5.07;2.60;;;9.30;91.10;;;;;;5047492;28;20044;-68
2021/12/18 11:17:14;;;;;;;4.20;2.33;;;9.30;91.10;;;;;;5048456;28;20516;-68
2021/12/18 11:19:41;;;;;;;5.60;2.08;;;9.40;91.50;;;;;;5048491;28;20037;-69
2021/12/18 11:22:13;;;;;;;3.00;1.35;;;9.40;91.00;;;;;;5045777;28;20041;-69
2021/12/18 11:24:52;;;;;;;4.07;1.50;;;9.40;90.90;;;;;;5043192;28;20033;-69
2021/12/18 11:27:20;;;;;;;2.42;1.60;;;9.40;90.70;;;;;;5017939;28;20076;-69
2021/12/18 11:30:08;;;;;;;3.63;2.58;;;9.30;90.70;;;;;;5049047;28;20112;-69
2021/12/18 11:32:42;;;;;;;4.72;2.00;;;9.30;90.60;;;;;;5047832;28;20042;-68
2021/12/18 11:35:10;;;;;;;6.35;2.10;;;9.30;90.70;;;;;;5043239;28;20049;-69
2021/12/18 11:37:43;;;;;;;4.50;2.38;;;9.30;90.70;;;;;;5045407;28;20509;-69
2021/12/18 11:40:12;;;;;;;8.63;3.55;;;9.30;90.80;;;;;;5046940;28;20053;-69
2021/12/18 11:42:38;;;;;;;9.30;2.60;;;9.30;90.80;;;;;;5042177;28;20512;-69
2021/12/18 11:45:07;;;;;;;3.67;2.47;;;9.30;90.80;;;;;;5045592;28;20048;-69
2021/12/18 11:47:44;;;;;;;11.23;3.17;;;9.30;90.80;;;;;;5047895;28;20132;-69
2021/12/18 11:50:28;;;;;;;8.98;2.80;;;9.30;91.00;;;;;;5039957;28;20056;-69
2021/12/18 11:53:02;;;;;;;9.90;4.47;;;9.30;91.00;;;;;;5044086;28;20120;-69
2021/12/18 11:55:37;;;;;;;7.18;3.25;;;9.40;91.00;;;;;;5043209;28;20048;-69
2021/12/18 11:58:13;;;;;;;5.38;2.22;;;9.50;91.10;;;;;;5030384;28;20211;-69
2021/12/18 12:00:49;;;;;;;4.53;1.65;;;9.50;90.90;;;;;;5046726;28;20040;-69
2021/12/18 12:03:26;;;;;;;5.00;2.17;;;9.40;90.80;;;;;;5040312;28;20084;-68
2021/12/18 12:05:52;;;;;;;7.57;2.38;;;9.40;90.70;;;;;;5036248;28;20045;-68
2021/12/18 12:08:30;;;;;;;3.78;2.40;;;9.30;90.60;;;;;;5028638;28;20457;-68
2021/12/18 12:11:17;;;;;;;8.65;2.70;;;9.40;90.80;;;;;;5031400;28;20063;-68
2021/12/18 12:14:04;;;;;;;7.07;2.65;;;9.40;90.60;;;;;;5027642;28;20050;-69
2021/12/18 12:16:45;;;;;;;9.30;2.45;;;9.30;90.70;;;;;;5039661;28;20049;-69
2021/12/18 12:19:13;;;;;;;8.90;2.47;;;9.30;90.90;;;;;;5048615;28;20052;-69
2021/12/18 12:21:46;;;;;;;8.38;2.60;;;9.30;90.90;;;;;;5043533;28;20045;-69
2021/12/18 12:24:14;;;;;;;5.50;2.20;;;9.30;90.90;;;;;;5048232;28;20230;-69
2021/12/18 12:26:41;;;;;;;7.78;3.35;;;9.30;90.90;;;;;;5047440;28;20048;-69
2021/12/18 12:29:09;;;;;;;3.28;2.40;;;9.40;90.80;;;;;;5045339;28;20058;-69
2021/12/18 12:31:35;;;;;;;6.90;2.72;;;9.30;90.90;;;;;;5033179;28;20094;-69
2021/12/18 12:34:19;;;;;;;8.95;2.22;;;9.20;91.00;;;;;;5048854;28;20045;-69
2021/12/18 12:36:45;;;;;;;4.90;2.45;;;9.30;90.90;;;;;;5034917;28;20060;-69
2021/12/18 12:39:14;;;;;;;8.20;2.25;;;9.20;90.70;;;;;;5028332;28;20569;-68
2021/12/18 12:41:51;;;;;;;4.07;2.08;;;9.20;90.80;;;;;;5045944;28;20099;-69
2021/12/18 12:44:25;;;;;;;5.97;2.22;;;9.30;91.10;;;;;;5041946;28;20045;-68
2021/12/18 12:47:14;;;;;;;8.38;2.78;;;9.60;90.90;;;;;;5047590;28;20057;-68
2021/12/18 12:49:41;;;;;;;4.22;2.45;;;9.60;90.30;;;;;;5047729;28;20044;-68
2021/12/18 12:52:15;;;;;;;4.85;2.60;;;9.50;90.40;;;;;;5044966;28;20123;-68
2021/12/18 12:55:09;;;;;;;5.35;2.88;;;9.40;90.30;;;;;;5032110;28;20217;-68
2021/12/18 12:57:37;;;;;;;3.72;2.67;;;9.40;90.40;;;;;;5013914;28;20200;-68
2021/12/18 13:00:06;;;;;;;6.35;2.83;;;9.20;90.60;;;;;;5031646;28;20059;-68
2021/12/18 13:02:35;;;;;;;4.28;2.72;;;9.20;90.70;;;;;;5046880;28;20040;-68
2021/12/18 13:05:07;;;;;;;3.70;2.03;;;9.20;90.80;;;;;;5043695;28;20041;-68
2021/12/18 13:07:33;;;;;;;;;;;9.10;90.80;;;;;;5045516;28;20524;-68
2021/12/18 13:09:59;;;;;;;5.82;1.77;;;9.10;90.60;;;;;;5051555;28;19925;-67
2021/12/18 13:12:24;;;;;;;5.07;2.63;;;9.10;90.80;;;;;;5050646;28;20405;-68
2021/12/18 13:14:52;;;;;;;5.60;2.53;;;9.20;91.00;;;;;;5037231;28;20482;-69
2021/12/18 13:17:23;;;;;;;4.95;2.60;;;9.20;90.70;;;;;;5046218;28;20048;-68
2021/12/18 13:19:57;;;;;;;7.43;2.33;;;9.30;90.70;;;;;;5039497;28;20043;-68
2021/12/18 13:22:33;;;;;;;5.63;2.90;;;9.20;90.60;;;;;;5029977;28;20119;-68
2021/12/18 13:25:14;;;;;;;6.07;2.60;;;9.10;90.30;;;;;;5033707;28;20052;-68
2021/12/18 13:27:43;;;;;;;3.92;2.95;;;9.10;90.40;;;;;;5041239;28;20057;-68
2021/12/18 13:30:17;;;;;;;7.47;3.15;;;9.10;90.30;;;;;;5031124;28;20052;-68
2021/12/18 13:32:57;;;;;;;9.75;3.97;;;9.10;90.40;;;;;;5041364;28;20186;-68
2021/12/18 13:35:25;;;;;;;7.97;3.08;;;9.10;90.50;;;;;;5047977;28;20071;-68
2021/12/18 13:38:11;;;;;;;6.70;3.45;;;9.00;90.30;;;;;;5049170;28;20086;-69
2021/12/18 13:40:43;;;;;;;5.43;3.03;;;9.00;90.40;;;;;;5049811;28;20528;-69
2021/12/18 13:43:10;;;;;;;8.20;3.05;;;9.00;90.60;;;;;;5033245;28;20048;-70
2021/12/18 13:45:48;;;;;;;6.10;2.97;;;9.00;90.60;;;;;;5047830;28;20044;-69
2021/12/18 13:48:14;;;;;;;8.90;2.90;;;9.00;90.60;;;;;;5048737;28;20048;-68